createdAt,value
2023-05-15T00:00:02.858Z,86.9
2023-05-15T00:15:02.184Z,87.0
2023-05-15T00:30:02.874Z,87.2
2023-05-15T00:45:02.089Z,87.9
2023-05-15T01:00:02.497Z,88.4
2023-05-15T01:15:02.964Z,88.7
2023-05-15T01:30:02.412Z,89.3
2023-05-15T01:45:02.844Z,90.2
2023-05-15T02:00:02.265Z,89.9
2023-05-15T02:15:02.871Z,90.3
2023-05-15T02:30:02.131Z,90.6
2023-05-15T02:45:02.564Z,91.0
2023-05-15T03:00:03.023Z,91.4
2023-05-15T03:15:02.463Z,91.4
2023-05-15T03:30:02.920Z,91.4
2023-05-15T03:45:02.316Z,91.8
2023-05-15T04:00:02.874Z,92.7
2023-05-15T04:15:02.218Z,95.1
2023-05-15T04:30:02.892Z,95.7
2023-05-15T04:45:02.104Z,96.1
2023-05-15T05:00:02.549Z,96.1
2023-05-15T05:15:02.994Z,96.3
2023-05-15T05:30:02.435Z,96.3
2023-05-15T05:45:02.952Z,96.4
2023-05-15T06:00:02.310Z,96.6
2023-05-15T06:15:02.901Z,96.5
2023-05-15T06:30:02.201Z,96.2
2023-05-15T06:45:02.643Z,95.8
2023-05-15T07:00:03.086Z,93.2
2023-05-15T07:15:02.527Z,90.8
2023-05-15T07:30:02.973Z,85.1
2023-05-15T07:45:02.438Z,80.3
2023-05-15T08:00:02.908Z,78.4
2023-05-15T08:15:02.293Z,73.6
2023-05-15T08:30:02.953Z,71.1
2023-05-15T08:45:02.174Z,71.5
2023-05-15T09:00:02.627Z,70.3
2023-05-15T09:15:03.055Z,71.8
2023-05-15T09:30:02.498Z,71.1
2023-05-15T09:45:02.928Z,66.8
2023-05-15T10:00:02.389Z,66.3
2023-05-15T10:15:02.939Z,67.0
2023-05-15T10:30:02.266Z,64.6
2023-05-15T10:45:02.722Z,64.1
2023-05-15T11:00:03.146Z,64.1
2023-05-15T11:15:02.550Z,63.8
2023-05-15T11:30:03.022Z,61.4
2023-05-15T11:45:02.407Z,60.9
2023-05-15T12:00:02.955Z,54.9
2023-05-15T12:15:02.318Z,56.1
2023-05-15T12:30:02.960Z,55.9
2023-05-15T12:45:02.165Z,55.8
2023-05-15T13:00:02.597Z,55.9
2023-05-15T13:15:03.080Z,56.1
2023-05-15T13:30:02.501Z,51.9
2023-05-15T13:45:02.978Z,48.4
2023-05-15T14:00:02.360Z,49.6
2023-05-15T14:15:02.983Z,49.4
2023-05-15T14:30:02.288Z,43.7
2023-05-15T14:45:02.706Z,39.9
2023-05-15T15:00:03.198Z,41.9
2023-05-15T15:15:02.575Z,41.4
2023-05-15T15:30:03.064Z,41.5
2023-05-15T15:45:02.472Z,43.4
2023-05-15T16:00:03.027Z,46.9
2023-05-15T16:15:20.102Z,50.7
2023-05-15T16:30:03.019Z,49.1
2023-05-15T16:45:02.224Z,53.1
2023-05-15T17:00:02.672Z,57.0
2023-05-15T17:15:03.117Z,58.3
2023-05-15T17:30:02.571Z,61.2
2023-05-15T17:45:03.049Z,60.4
2023-05-15T18:00:02.417Z,58.7
2023-05-15T18:15:03.021Z,62.6
2023-05-15T18:30:02.296Z,65.9
2023-05-15T18:45:02.734Z,68.5
2023-05-15T19:00:03.173Z,69.0
2023-05-15T19:15:02.618Z,72.6
2023-05-15T19:30:03.056Z,75.6
2023-05-15T19:45:02.497Z,77.1
2023-05-15T20:00:03.030Z,78.3
2023-05-15T20:15:02.359Z,78.8
2023-05-15T20:30:03.037Z,80.0
2023-05-15T20:45:02.253Z,81.0
2023-05-15T21:00:02.679Z,82.6
2023-05-15T21:15:03.114Z,83.9
2023-05-15T21:30:02.530Z,84.5
2023-05-15T21:45:05.345Z,84.7
2023-05-15T22:00:03.418Z,84.7
2023-05-15T22:15:03.046Z,85.1
2023-05-15T22:30:02.353Z,85.7
2023-05-15T22:45:02.758Z,85.5
2023-05-15T23:00:03.211Z,84.3
2023-05-15T23:15:02.612Z,84.0
2023-05-15T23:30:03.091Z,84.0
2023-05-15T23:45:02.490Z,84.1
